createdAt,value
2022-11-01T00:01:03.049Z,100548.38
2022-11-01T00:03:29.470Z,100531.16
2022-11-01T00:05:56.005Z,100529.28
2022-11-01T00:08:22.469Z,100522.53
2022-11-01T00:10:48.811Z,100513.50
2022-11-01T00:13:15.171Z,100505.16
2022-11-01T00:15:41.511Z,100497.44
2022-11-01T00:18:07.854Z,100497.06
2022-11-01T00:20:34.262Z,100484.47
2022-11-01T00:23:00.787Z,100477.59
2022-11-01T00:25:27.263Z,100469.63
2022-11-01T00:27:53.593Z,100467.13
2022-11-01T00:30:22.322Z,100454.78
2022-11-01T00:32:48.700Z,100449.56
2022-11-01T00:35:15.014Z,100448.72
2022-11-01T00:37:41.419Z,100458.19
2022-11-01T00:40:07.970Z,100465.19
2022-11-01T00:42:34.316Z,100489.72
2022-11-01T00:45:00.657Z,100497.06
2022-11-01T00:47:27.001Z,100501.69
2022-11-01T00:49:53.316Z,100507.13
2022-11-01T00:52:19.638Z,100503.38
2022-11-01T00:54:46.045Z,100499.56
2022-11-01T00:57:12.370Z,100498.38
2022-11-01T00:59:41.008Z,100506.78
2022-11-01T01:02:07.891Z,100508.53
2022-11-01T01:04:34.365Z,100523.44
2022-11-01T01:07:00.690Z,100508.97
2022-11-01T01:09:26.973Z,100503.53
2022-11-01T01:11:53.477Z,100498.97
2022-11-01T01:14:19.967Z,100505.09
2022-11-01T01:16:46.450Z,100508.66
2022-11-01T01:19:12.777Z,100498.56
2022-11-01T01:21:39.206Z,100496.47
2022-11-01T01:24:05.638Z,100491.84
2022-11-01T01:26:31.923Z,100497.66
2022-11-01T01:28:58.274Z,100505.19
2022-11-01T01:31:24.565Z,100500.94
2022-11-01T01:33:50.865Z,100502.38
2022-11-01T01:36:17.505Z,100500.03
2022-11-01T01:38:43.813Z,100487.22
2022-11-01T01:41:28.890Z,100490.78
2022-11-01T01:43:55.343Z,100474.19
2022-11-01T01:46:21.733Z,100463.88
2022-11-01T01:48:51.565Z,100460.94
2022-11-01T01:51:20.203Z,100459.84
2022-11-01T01:53:53.487Z,100461.06
2022-11-01T01:56:22.200Z,100465.03
2022-11-01T01:58:54.659Z,100464.53
2022-11-01T02:01:21.323Z,100472.50
2022-11-01T02:03:48.170Z,100475.84
2022-11-01T02:06:18.902Z,100474.75
2022-11-01T02:08:50.904Z,100473.72
2022-11-01T02:11:18.612Z,100487.13
2022-11-01T02:13:44.982Z,100492.09
2022-11-01T02:16:17.276Z,100481.19
2022-11-01T02:18:46.419Z,100484.53
2022-11-01T02:21:31.114Z,100483.25
2022-11-01T02:24:07.113Z,100485.97
2022-11-01T02:26:46.461Z,100493.13
2022-11-01T02:29:42.196Z,100495.84
2022-11-01T02:32:21.472Z,100493.13
2022-11-01T02:35:01.318Z,100480.50
2022-11-01T02:37:27.762Z,100483.25
2022-11-01T02:39:57.777Z,100479.47
2022-11-01T02:42:37.202Z,100482.44
2022-11-01T02:45:06.705Z,100480.16
2022-11-01T02:47:33.943Z,100485.84
2022-11-01T02:50:05.974Z,100482.50
2022-11-01T02:52:33.554Z,100483.34
2022-11-01T02:55:01.093Z,100492.09
2022-11-01T02:57:37.516Z,100482.88
2022-11-01T03:00:20.211Z,100488.34
2022-11-01T03:02:46.866Z,100481.81
2022-11-01T03:05:16.447Z,100494.16
2022-11-01T03:07:44.934Z,100498.09
2022-11-01T03:10:11.501Z,100504.38
2022-11-01T03:12:43.587Z,100494.53
2022-11-01T03:15:30.347Z,100492.41
2022-11-01T03:18:00.970Z,100497.63
2022-11-01T03:20:27.311Z,100505.00
2022-11-01T03:22:55.523Z,100503.31
2022-11-01T03:25:40.277Z,100505.00
2022-11-01T03:28:06.646Z,100507.97
2022-11-01T03:30:34.243Z,100506.03
2022-11-01T03:33:01.055Z,100507.97
2022-11-01T03:35:30.936Z,100507.97
2022-11-01T03:38:00.579Z,100508.78
2022-11-01T03:40:28.871Z,100508.78
2022-11-01T03:43:01.805Z,100518.03
2022-11-01T03:45:29.337Z,100519.69
2022-11-01T03:47:55.686Z,100516.97
2022-11-01T03:50:24.036Z,100522.44
2022-11-01T03:52:50.536Z,100523.03
2022-11-01T03:55:18.110Z,100529.34
2022-11-01T03:57:44.482Z,100527.66
2022-11-01T04:00:11.235Z,100528.50
2022-11-01T04:02:37.646Z,100528.50
2022-11-01T04:05:04.340Z,100528.50
2022-11-01T04:07:30.610Z,100526.63
2022-11-01T04:09:56.900Z,100528.28
2022-11-01T04:12:23.266Z,100538.97
2022-11-01T04:15:08.359Z,100548.81
2022-11-01T04:17:53.401Z,100551.53
2022-11-01T04:20:34.980Z,100549.66
2022-11-01T04:23:07.599Z,100558.69
2022-11-01T04:25:34.563Z,100570.66
2022-11-01T04:28:00.906Z,100569.84
2022-11-01T04:30:28.349Z,100575.28
2022-11-01T04:32:55.099Z,100577.19
2022-11-01T04:35:21.649Z,100585.59
2022-11-01T04:37:48.485Z,100580.13
2022-11-01T04:40:15.092Z,100591.91
2022-11-01T04:42:41.395Z,100592.34
2022-11-01T04:45:08.355Z,100595.31
2022-11-01T04:47:34.815Z,100593.88
2022-11-01T04:50:01.213Z,100591.16
2022-11-01T04:52:27.487Z,100600.38
2022-11-01T04:54:53.859Z,100602.53
2022-11-01T04:57:23.144Z,100607.97
2022-11-01T04:59:53.523Z,100615.53
2022-11-01T05:02:20.735Z,100610.94
2022-11-01T05:04:47.317Z,100608.66
2022-11-01T05:07:14.019Z,100618.94
2022-11-01T05:09:40.862Z,100608.25
2022-11-01T05:12:07.389Z,100618.13
2022-11-01T05:14:33.780Z,100614.34
2022-11-01T05:17:00.464Z,100615.16
2022-11-01T05:19:26.810Z,100621.47
2022-11-01T05:21:53.083Z,100621.09
2022-11-01T05:24:19.399Z,100622.97
2022-11-01T05:26:45.834Z,100635.78
2022-11-01T05:29:24.542Z,100642.75
2022-11-01T05:31:58.389Z,100643.41
2022-11-01T05:34:24.868Z,100653.13
2022-11-01T05:36:51.126Z,100657.81
2022-11-01T05:39:17.510Z,100667.50
2022-11-01T05:41:43.840Z,100663.31
2022-11-01T05:44:10.138Z,100675.06
2022-11-01T05:46:36.726Z,100666.28
2022-11-01T05:49:03.007Z,100670.69
2022-11-01T05:51:29.311Z,100671.75
2022-11-01T05:53:55.624Z,100692.28
2022-11-01T05:56:22.084Z,100696.03
2022-11-01T05:58:48.414Z,100704.47
2022-11-01T06:01:17.080Z,100695.44
2022-11-01T06:03:43.633Z,100703.63
2022-11-01T06:06:10.813Z,100716.63
2022-11-01T06:08:37.141Z,100717.44
2022-11-01T06:11:04.503Z,100719.34
2022-11-01T06:13:31.200Z,100725.84
2022-11-01T06:16:01.450Z,100729.63
2022-11-01T06:18:27.896Z,100732.13
2022-11-01T06:20:54.227Z,100737.22
2022-11-01T06:23:20.863Z,100731.97
2022-11-01T06:25:47.444Z,100746.66
2022-11-01T06:28:13.887Z,100746.88
2022-11-01T06:30:40.203Z,100751.72
2022-11-01T06:33:06.587Z,100761.16
2022-11-01T06:35:33.492Z,100769.59
2022-11-01T06:38:03.953Z,100778.66
2022-11-01T06:40:30.258Z,100772.56
2022-11-01T06:43:01.401Z,100775.75
2022-11-01T06:45:28.614Z,100780.59
2022-11-01T06:47:54.928Z,100790.44
2022-11-01T06:50:21.514Z,100797.19
2022-11-01T06:52:48.179Z,100808.31
2022-11-01T06:55:15.328Z,100803.50
2022-11-01T06:57:41.636Z,100817.78
2022-11-01T07:00:09.146Z,100829.31
2022-11-01T07:02:36.062Z,100830.56
2022-11-01T07:05:02.470Z,100841.69
2022-11-01T07:07:28.801Z,100847.78
2022-11-01T07:09:55.077Z,100858.69
2022-11-01T07:12:21.477Z,100871.25
2022-11-01T07:14:47.775Z,100877.59
2022-11-01T07:17:14.195Z,100885.78
2022-11-01T07:19:40.514Z,100899.41
2022-11-01T07:22:08.478Z,100900.69
2022-11-01T07:24:34.869Z,100902.56
2022-11-01T07:27:01.410Z,100906.75
2022-11-01T07:29:27.848Z,100922.06
2022-11-01T07:31:54.344Z,100923.75
2022-11-01T07:34:20.818Z,100923.56
2022-11-01T07:36:47.210Z,100929.81
2022-11-01T07:39:13.723Z,100942.44
2022-11-01T07:41:40.061Z,100943.06
2022-11-01T07:44:06.458Z,100945.56
2022-11-01T07:46:32.869Z,100945.97
2022-11-01T07:49:00.383Z,100950.59
2022-11-01T07:51:26.692Z,100961.72
2022-11-01T07:53:54.137Z,100959.59
2022-11-01T07:56:22.120Z,100967.16
2022-11-01T07:58:48.651Z,100979.31
2022-11-01T08:01:15.282Z,100990.41
2022-11-01T08:03:41.829Z,100986.22
2022-11-01T08:06:08.513Z,100984.53
2022-11-01T08:08:34.883Z,100984.97
2022-11-01T08:11:01.884Z,101001.94
2022-11-01T08:13:28.640Z,100992.91
2022-11-01T08:15:55.444Z,100997.53
2022-11-01T08:18:24.162Z,100992.28
2022-11-01T08:20:51.220Z,101004.88
2022-11-01T08:23:17.570Z,101009.28
2022-11-01T08:25:44.684Z,101016.81
2022-11-01T08:28:12.463Z,101011.59
2022-11-01T08:30:39.691Z,101019.13
2022-11-01T08:33:06.534Z,101024.78
2022-11-01T08:35:33.684Z,101028.13
2022-11-01T08:38:00.388Z,101025.19
2022-11-01T08:40:28.288Z,101028.97
2022-11-01T08:42:54.885Z,101031.50
2022-11-01T08:45:21.347Z,101027.72
2022-11-01T08:47:47.857Z,101037.75
2022-11-01T08:50:15.360Z,101037.75
2022-11-01T08:52:41.847Z,101042.38
2022-11-01T08:55:09.423Z,101040.31
2022-11-01T08:57:35.860Z,101046.59
2022-11-01T09:00:02.581Z,101050.78
2022-11-01T09:02:29.039Z,101052.66
2022-11-01T09:04:55.382Z,101057.50
2022-11-01T09:07:21.654Z,101061.25
2022-11-01T09:09:48.033Z,101057.69
2022-11-01T09:12:14.993Z,101062.31
2022-11-01T09:14:41.906Z,101062.72
2022-11-01T09:17:08.300Z,101064.19
2022-11-01T09:19:34.630Z,101065.25
2022-11-01T09:22:00.933Z,101062.31
2022-11-01T09:24:27.245Z,101073.00
2022-11-01T09:26:53.823Z,101067.56
2022-11-01T09:29:21.284Z,101075.28
2022-11-01T09:31:50.640Z,101077.81
2022-11-01T09:34:16.915Z,101082.22
2022-11-01T09:36:43.342Z,101086.44
2022-11-01T09:39:09.660Z,101079.91
2022-11-01T09:41:38.999Z,101085.56
2022-11-01T09:44:07.849Z,101084.34
2022-11-01T09:46:42.537Z,101085.59
2022-11-01T09:49:11.321Z,101084.94
2022-11-01T09:51:38.686Z,101079.72
2022-11-01T09:54:07.149Z,101071.31
2022-11-01T09:57:02.814Z,101075.09
2022-11-01T09:59:34.748Z,101073.00
2022-11-01T10:02:09.690Z,101086.41
2022-11-01T10:04:39.435Z,101075.28
2022-11-01T10:07:22.521Z,101073.66
2022-11-01T10:10:12.438Z,101074.25
2022-11-01T10:12:59.083Z,101081.38
2022-11-01T10:15:48.803Z,101091.03
2022-11-01T10:18:40.653Z,101083.47
2022-11-01T10:21:14.922Z,101091.06
2022-11-01T10:23:48.599Z,101094.63
2022-11-01T10:26:17.201Z,101096.09
2022-11-01T10:28:46.347Z,101099.69
2022-11-01T10:31:17.145Z,101094.44
2022-11-01T10:33:50.834Z,101102.19
2022-11-01T10:36:23.463Z,101066.31
2022-11-01T10:41:53.054Z,101106.59
2022-11-01T10:44:26.923Z,101099.25
2022-11-01T10:46:53.340Z,101107.44
2022-11-01T10:49:24.614Z,101112.44
2022-11-01T10:51:53.155Z,101114.16
2022-11-01T10:54:22.180Z,101116.44
2022-11-01T10:56:50.078Z,101122.94
2022-11-01T10:59:16.859Z,101115.41
2022-11-01T11:01:44.008Z,101117.06
2022-11-01T11:04:13.826Z,101118.75
2022-11-01T11:06:40.620Z,101111.59
2022-11-01T11:09:07.321Z,101112.25
2022-11-01T11:11:35.757Z,101108.47
2022-11-01T11:14:05.318Z,101100.28
2022-11-01T11:16:31.704Z,101099.84
2022-11-01T11:19:02.224Z,101093.13
2022-11-01T11:21:32.072Z,101091.25
2022-11-01T11:23:58.437Z,101095.66
2022-11-01T11:26:25.752Z,101100.69
2022-11-01T11:28:54.666Z,101101.94
2022-11-01T11:31:25.596Z,101106.34
2022-11-01T11:33:54.364Z,101095.03
2022-11-01T11:36:29.190Z,101100.47
2022-11-01T11:38:55.573Z,101098.56
2022-11-01T11:41:27.070Z,101100.28
2022-11-01T11:43:53.471Z,101099.00
2022-11-01T11:46:26.055Z,101099.59
2022-11-01T11:48:56.592Z,101106.75
2022-11-01T11:51:24.769Z,101095.84
2022-11-01T11:54:10.471Z,101100.44
2022-11-01T11:56:36.942Z,101099.19
2022-11-01T11:59:08.524Z,101095.41
2022-11-01T12:01:35.416Z,101089.13
2022-11-01T12:04:09.547Z,101096.25
2022-11-01T12:06:42.148Z,101070.03
2022-11-01T12:09:28.615Z,101098.75
2022-11-01T12:11:55.039Z,101099.56
2022-11-01T12:14:24.660Z,101109.03
2022-11-01T12:16:51.089Z,101109.66
2022-11-01T12:19:28.505Z,101105.63
2022-11-01T12:22:01.589Z,101100.19
2022-11-01T12:24:37.579Z,101103.97
2022-11-01T12:27:06.660Z,101095.78
2022-11-01T12:29:32.909Z,101108.16
2022-11-01T12:32:25.532Z,101103.50
2022-11-01T12:34:53.762Z,101084.22
2022-11-01T12:37:25.317Z,101101.00
2022-11-01T12:40:10.536Z,101104.78
2022-11-01T12:42:40.433Z,101095.53
2022-11-01T12:45:22.420Z,101093.66
2022-11-01T12:47:53.042Z,101085.84
2022-11-01T12:50:19.348Z,101089.66
2022-11-01T12:52:50.923Z,101083.13
2022-11-01T12:55:32.501Z,101088.38
2022-11-01T12:57:58.864Z,101092.97
2022-11-01T13:00:29.219Z,101097.41
2022-11-01T13:03:12.441Z,101098.44
2022-11-01T13:05:59.063Z,101094.69
2022-11-01T13:08:35.607Z,101095.28
2022-11-01T13:11:25.299Z,101095.91
2022-11-01T13:14:04.035Z,101100.31
2022-11-01T13:16:35.507Z,101095.06
2022-11-01T13:19:07.632Z,101098.81
2022-11-01T13:21:45.929Z,101104.28
2022-11-01T13:24:31.016Z,101098.22
2022-11-01T13:27:15.815Z,101091.69
2022-11-01T13:29:48.860Z,101098.44
2022-11-01T13:32:18.047Z,101097.16
2022-11-01T13:34:53.966Z,101097.78
2022-11-01T13:37:25.183Z,101102.59
2022-11-01T13:40:06.600Z,101104.94
2022-11-01T13:42:38.484Z,101101.38
2022-11-01T13:45:07.652Z,101096.75
2022-11-01T13:47:33.958Z,101092.53
2022-11-01T13:50:07.935Z,101088.16
2022-11-01T13:52:36.015Z,101091.72
2022-11-01T13:55:21.114Z,101060.72
2022-11-01T13:57:48.530Z,101098.00
2022-11-01T14:00:33.839Z,101105.59
2022-11-01T14:03:01.096Z,101101.16
2022-11-01T14:05:37.620Z,101107.69
2022-11-01T14:08:04.309Z,101098.91
2022-11-01T14:10:30.930Z,101100.16
2022-11-01T14:12:57.316Z,101106.44
2022-11-01T14:15:25.349Z,101099.31
2022-11-01T14:18:03.785Z,101095.97
2022-11-01T14:20:33.210Z,101108.16
2022-11-01T14:23:19.520Z,101103.97
2022-11-01T14:25:46.009Z,101116.97
2022-11-01T14:28:18.284Z,101118.47
2022-11-01T14:30:47.304Z,101123.94
2022-11-01T14:33:15.246Z,101118.47
2022-11-01T14:35:45.366Z,101109.03
2022-11-01T14:38:13.561Z,101109.84
2022-11-01T14:40:47.019Z,101120.38
2022-11-01T14:43:16.346Z,101124.34
2022-11-01T14:45:45.158Z,101124.56
2022-11-01T14:48:16.316Z,101134.66
2022-11-01T14:50:58.201Z,101124.16
2022-11-01T14:53:37.938Z,101125.22
2022-11-01T14:56:27.284Z,101128.16
2022-11-01T14:59:11.118Z,101126.69
2022-11-01T15:01:42.957Z,101125.84
2022-11-01T15:04:18.218Z,101131.53
2022-11-01T15:06:44.508Z,101136.34
2022-11-01T15:09:18.996Z,101143.91
2022-11-01T15:11:46.087Z,101136.38
2022-11-01T15:14:13.875Z,101144.75
2022-11-01T15:16:42.626Z,101126.28
2022-11-01T15:19:18.786Z,101138.25
2022-11-01T15:21:47.672Z,101132.16
2022-11-01T15:24:19.328Z,101142.66
2022-11-01T15:26:46.131Z,101144.75
2022-11-01T15:29:17.351Z,101152.09
2022-11-01T15:31:56.055Z,101142.47
2022-11-01T15:34:24.148Z,101147.28
2022-11-01T15:36:51.168Z,101150.63
2022-11-01T15:39:22.515Z,101152.75
2022-11-01T15:41:49.931Z,101153.56
2022-11-01T15:44:21.308Z,101150.19
2022-11-01T15:46:48.293Z,101146.63
2022-11-01T15:49:23.286Z,101147.25
2022-11-01T15:51:55.581Z,101143.69
2022-11-01T15:54:31.870Z,101149.53
2022-11-01T15:57:00.629Z,101150.38
2022-11-01T15:59:31.461Z,101141.13
2022-11-01T16:02:00.882Z,101143.00
2022-11-01T16:04:29.502Z,101145.31
2022-11-01T16:07:02.588Z,101151.38
2022-11-01T16:09:33.481Z,101151.16
2022-11-01T16:12:01.191Z,101153.03
2022-11-01T16:14:32.460Z,101143.81
2022-11-01T16:17:05.199Z,101156.59
2022-11-01T16:19:45.005Z,101150.50
2022-11-01T16:22:26.678Z,101149.66
2022-11-01T16:25:02.543Z,101160.31
2022-11-01T16:27:29.072Z,101154.66
2022-11-01T16:29:55.542Z,101151.69
2022-11-01T16:32:27.231Z,101157.53
2022-11-01T16:34:55.346Z,101154.59
2022-11-01T16:37:23.647Z,101161.50
2022-11-01T16:39:50.516Z,101164.22
2022-11-01T16:42:19.138Z,101169.66
2022-11-01T16:44:59.764Z,101173.59
2022-11-01T16:47:26.127Z,101176.13
2022-11-01T16:49:54.127Z,101185.13
2022-11-01T16:52:20.472Z,101195.38
2022-11-01T16:54:52.972Z,101187.59
2022-11-01T16:57:26.779Z,101188.47
2022-11-01T16:59:56.549Z,101196.38
2022-11-01T17:02:23.818Z,101180.88
2022-11-01T17:04:52.443Z,101190.09
2022-11-01T17:07:18.962Z,101198.38
2022-11-01T17:09:45.302Z,101197.56
2022-11-01T17:12:11.708Z,101186.25
2022-11-01T17:14:38.431Z,101194.59
2022-11-01T17:17:13.976Z,101191.28
2022-11-01T17:19:43.166Z,101198.75
2022-11-01T17:22:17.698Z,101190.78
2022-11-01T17:24:44.645Z,101198.28
2022-11-01T17:27:11.193Z,101200.00
2022-11-01T17:29:37.635Z,101198.09
2022-11-01T17:32:08.803Z,101203.31
2022-11-01T17:34:35.753Z,101208.28
2022-11-01T17:37:02.145Z,101207.06
2022-11-01T17:39:29.045Z,101207.25
2022-11-01T17:41:55.743Z,101207.91
2022-11-01T17:44:22.755Z,101205.78
2022-11-01T17:46:49.112Z,101209.75
2022-11-01T17:49:16.255Z,101217.25
2022-11-01T17:51:46.334Z,101215.34
2022-11-01T17:54:14.873Z,101214.03
2022-11-01T17:56:41.261Z,101217.81
2022-11-01T17:59:08.589Z,101217.41
2022-11-01T18:01:36.998Z,101207.19
2022-11-01T18:04:03.719Z,101210.91
2022-11-01T18:06:30.080Z,101211.13
2022-11-01T18:08:56.639Z,101204.19
2022-11-01T18:11:34.154Z,101209.00
2022-11-01T18:14:09.491Z,101209.41
2022-11-01T18:16:38.905Z,101203.91
2022-11-01T18:19:14.473Z,101205.56
2022-11-01T18:21:43.841Z,101201.38
2022-11-01T18:24:17.115Z,101210.19
2022-11-01T18:26:46.241Z,101211.22
2022-11-01T18:29:17.240Z,101208.50
2022-11-01T18:31:46.723Z,101203.06
2022-11-01T18:34:31.898Z,101205.16
2022-11-01T18:37:03.235Z,101198.44
2022-11-01T18:39:32.336Z,101202.13
2022-11-01T18:42:00.487Z,101208.41
2022-11-01T18:44:26.858Z,101215.53
2022-11-01T18:46:56.862Z,101212.91
2022-11-01T18:49:27.030Z,101211.63
2022-11-01T18:51:55.143Z,101212.47
2022-11-01T18:54:26.731Z,101213.09
2022-11-01T18:56:54.548Z,101204.06
2022-11-01T18:59:23.905Z,101209.69
2022-11-01T19:01:55.309Z,101205.50
2022-11-01T19:04:24.240Z,101210.72
2022-11-01T19:06:50.720Z,101205.97
2022-11-01T19:09:22.918Z,101201.09
2022-11-01T19:12:08.472Z,101197.91
2022-11-01T19:14:35.194Z,101201.47
2022-11-01T19:17:03.056Z,101196.91
2022-11-01T19:19:30.647Z,101201.88
2022-11-01T19:22:01.149Z,101208.53
2022-11-01T19:24:39.722Z,101196.38
2022-11-01T19:27:14.889Z,101202.84
2022-11-01T19:29:41.294Z,101193.66
2022-11-01T19:32:11.237Z,101203.50
2022-11-01T19:34:38.484Z,101191.38
2022-11-01T19:37:14.211Z,101190.56
2022-11-01T19:39:41.555Z,101196.38
2022-11-01T19:42:41.787Z,101186.28
2022-11-01T19:45:10.943Z,101183.25
2022-11-01T19:47:39.757Z,101182.53
2022-11-01T19:50:24.880Z,101189.63
2022-11-01T19:52:52.266Z,101177.47
2022-11-01T19:55:30.871Z,101183.97
2022-11-01T19:57:57.156Z,101182.28
2022-11-01T20:00:24.802Z,101180.53
2022-11-01T20:02:55.095Z,101176.03
2022-11-01T20:05:24.199Z,101179.19
2022-11-01T20:07:50.654Z,101173.75
2022-11-01T20:10:18.168Z,101178.03
2022-11-01T20:12:44.995Z,101183.25
2022-11-01T20:15:11.524Z,101187.53
2022-11-01T20:17:37.909Z,101185.06
2022-11-01T20:20:04.378Z,101182.13
2022-11-01T20:22:30.732Z,101185.50
2022-11-01T20:24:58.403Z,101184.19
2022-11-01T20:27:24.682Z,101178.75
2022-11-01T20:29:51.075Z,101186.66
2022-11-01T20:32:17.504Z,101172.91
2022-11-01T20:34:44.540Z,101179.56
2022-11-01T20:39:57.511Z,101178.63
2022-11-01T20:42:24.361Z,101180.75
2022-11-01T20:44:50.926Z,101184.63
2022-11-01T20:47:17.275Z,101172.69
2022-11-01T20:49:43.631Z,101178.13
2022-11-01T20:52:39.155Z,101151.94
2022-11-01T20:54:58.712Z,101187.53
2022-11-01T20:57:28.441Z,101183.75
2022-11-01T20:59:55.567Z,101187.41
2022-11-01T21:02:22.047Z,101189.88
2022-11-01T21:04:55.126Z,101184.44
2022-11-01T21:07:21.641Z,101177.69
2022-11-01T21:09:51.012Z,101176.69
2022-11-01T21:12:36.147Z,101177.31
2022-11-01T21:15:11.779Z,101176.94
2022-11-01T21:17:38.063Z,101179.78
2022-11-01T21:20:19.271Z,101181.25
2022-11-01T21:22:45.699Z,101182.13
2022-11-01T21:25:19.918Z,101189.34
2022-11-01T21:27:48.467Z,101182.22
2022-11-01T21:30:16.279Z,101189.16
2022-11-01T21:32:45.305Z,101195.22
2022-11-01T21:35:21.040Z,101193.94
2022-11-01T21:37:48.315Z,101187.66
2022-11-01T21:40:28.220Z,101194.31
2022-11-01T21:42:54.826Z,101184.69
2022-11-01T21:45:31.323Z,101185.69
2022-11-01T21:48:02.340Z,101187.41
2022-11-01T21:50:28.905Z,101186.75
2022-11-01T21:52:55.254Z,101181.59
2022-11-01T21:55:21.650Z,101184.31
2022-11-01T21:57:48.050Z,101180.34
2022-11-01T22:00:15.339Z,101181.84
2022-11-01T22:02:41.955Z,101182.97
2022-11-01T22:05:08.354Z,101183.91
2022-11-01T22:07:34.676Z,101187.66
2022-11-01T22:10:01.013Z,101185.50
2022-11-01T22:12:27.324Z,101181.41
2022-11-01T22:14:53.619Z,101171.94
2022-11-01T22:17:19.929Z,101165.88
2022-11-01T22:19:46.563Z,101175.50
2022-11-01T22:22:12.823Z,101181.78
2022-11-01T22:24:39.103Z,101170.91
2022-11-01T22:27:05.421Z,101162.38
2022-11-01T22:29:31.669Z,101158.06
2022-11-01T22:31:57.961Z,101154.03
2022-11-01T22:34:24.194Z,101150.09
2022-11-01T22:36:50.469Z,101137.09
2022-11-01T22:39:26.698Z,101123.19
2022-11-01T22:41:54.182Z,101150.47
2022-11-01T22:44:25.094Z,101152.63
2022-11-01T22:46:56.893Z,101154.03
2022-11-01T22:49:25.703Z,101149.44
2022-11-01T22:51:54.712Z,101142.31
2022-11-01T22:54:25.195Z,101136.91
2022-11-01T22:56:56.286Z,101134.63
2022-11-01T22:59:22.697Z,101127.13
2022-11-01T23:01:51.977Z,101129.84
2022-11-01T23:04:22.198Z,101121.31
2022-11-01T23:06:50.399Z,101129.06
2022-11-01T23:09:19.864Z,101131.78
2022-11-01T23:12:06.714Z,101131.41
2022-11-01T23:14:45.356Z,101136.44
2022-11-01T23:17:25.991Z,101138.13
2022-11-01T23:19:55.394Z,101135.16
2022-11-01T23:22:22.908Z,101128.50
2022-11-01T23:24:50.215Z,101130.66
2022-11-01T23:27:16.829Z,101134.19
2022-11-01T23:29:43.106Z,101131.84
2022-11-01T23:32:11.603Z,101132.34
2022-11-01T23:34:37.883Z,101134.66
2022-11-01T23:37:05.789Z,101123.00
2022-11-01T23:39:34.098Z,101128.25
2022-11-01T23:42:00.414Z,101135.78
2022-11-01T23:44:30.935Z,101134.13
2022-11-01T23:47:04.391Z,101108.22
2022-11-01T23:49:32.891Z,101112.25
2022-11-01T23:52:00.217Z,101110.94
2022-11-01T23:54:35.147Z,101116.38
2022-11-01T23:57:01.698Z,101114.31
2022-11-01T23:59:28.240Z,101103.25
